Time;durP1;ratioP1;P1;durP2;ratioP2;P2;SDS_P1;SDS_P2;PMS_P1;PMS_P2;Temp;Humidity;BMP_temperature;BMP_pressure;BME280_temperature;BME280_humidity;BME280_pressure;Samples;Min_cycle;Max_cycle;Signal;HPM_P1;HPM_P2
2023/02/02 00:01:23;;;;;;;18.92;5.50;;;;;7.60;99141.00;;;;4936156;29;20055;-62
2023/02/02 00:03:50;;;;;;;20.58;4.03;;;;;7.50;99135.00;;;;4919278;29;20043;-63
2023/02/02 00:06:18;;;;;;;16.70;4.43;;;;;7.50;99132.00;;;;4935817;29;20587;-62
2023/02/02 00:08:45;;;;;;;22.30;4.43;;;;;7.50;99137.00;;;;4936242;29;20043;-62
2023/02/02 00:11:13;;;;;;;12.80;3.88;;;;;7.50;99141.00;;;;4936340;29;20540;-62
2023/02/02 00:13:39;;;;;;;20.38;5.18;;;;;7.50;99136.00;;;;4918997;29;20110;-64
2023/02/02 00:16:24;;;;;;;16.33;4.10;;;;;7.50;99131.00;;;;4935550;29;20043;-64
2023/02/02 00:18:52;;;;;;;18.42;4.20;;;;;7.50;99147.00;;;;4935918;29;20056;-62
2023/02/02 00:21:19;;;;;;;18.00;4.03;;;;;7.50;99121.00;;;;4936497;29;20093;-63
2023/02/02 00:23:45;;;;;;;18.27;3.80;;;;;7.50;99120.00;;;;4936382;29;20521;-62
2023/02/02 00:26:12;;;;;;;17.58;4.05;;;;;7.50;99133.00;;;;4935354;29;20132;-62
2023/02/02 00:28:39;;;;;;;17.05;4.07;;;;;7.50;99119.00;;;;4936016;29;20043;-62
2023/02/02 00:31:05;;;;;;;13.93;3.60;;;;;7.50;99120.00;;;;4935913;29;20436;-63
2023/02/02 00:33:32;;;;;;;16.05;4.35;;;;;7.50;99121.00;;;;4936046;29;20102;-62
2023/02/02 00:35:58;;;;;;;14.57;3.20;;;;;7.50;99123.00;;;;4935044;29;20059;-62
2023/02/02 00:38:25;;;;;;;11.57;3.70;;;;;7.60;99136.00;;;;4935693;29;20564;-63
2023/02/02 00:40:51;;;;;;;18.58;3.95;;;;;7.60;99126.00;;;;4935586;29;20047;-63
2023/02/02 00:43:18;;;;;;;11.93;3.67;;;;;7.60;99127.00;;;;4935433;29;20050;-62
2023/02/02 00:45:45;;;;;;;18.65;4.45;;;;;7.60;99132.00;;;;4917948;29;20043;-60
2023/02/02 00:48:12;;;;;;;21.77;4.38;;;;;7.60;99130.00;;;;4935332;29;20065;-63
2023/02/02 00:50:39;;;;;;;16.15;3.85;;;;;7.60;99124.00;;;;4918909;29;20051;-62
2023/02/02 00:53:06;;;;;;;21.77;4.40;;;;;7.50;99140.00;;;;4935426;29;20087;-62
2023/02/02 00:55:32;;;;;;;18.25;3.90;;;;;7.50;99130.00;;;;4934807;29;20044;-62
2023/02/02 00:58:00;;;;;;;19.23;4.47;;;;;7.50;99130.00;;;;4918075;29;20421;-62
2023/02/02 01:00:27;;;;;;;15.40;3.47;;;;;7.40;99136.00;;;;4935346;29;20055;-62
2023/02/02 01:02:54;;;;;;;16.55;3.70;;;;;7.50;99146.00;;;;4917938;29;20062;-63
2023/02/02 01:05:21;;;;;;;13.15;3.92;;;;;7.50;99144.00;;;;4917393;29;20055;-62
2023/02/02 01:07:49;;;;;;;14.07;3.92;;;;;7.50;99148.00;;;;4917897;29;20532;-62
2023/02/02 01:10:18;;;;;;;22.10;4.78;;;;;7.50;99145.00;;;;4934941;29;20054;-62
2023/02/02 01:12:45;;;;;;;15.10;4.90;;;;;7.50;99142.00;;;;4935275;29;20132;-62
2023/02/02 01:15:12;;;;;;;17.77;4.22;;;;;7.40;99129.00;;;;4917394;29;20060;-61
2023/02/02 01:17:39;;;;;;;20.13;5.00;;;;;7.40;99133.00;;;;4918122;29;20055;-62
2023/02/02 01:20:09;;;;;;;18.08;4.45;;;;;7.40;99130.00;;;;4935031;29;20047;-62
2023/02/02 01:22:37;;;;;;;18.80;4.60;;;;;7.40;99131.00;;;;4917646;29;20058;-63
2023/02/02 01:25:04;;;;;;;22.98;4.25;;;;;7.40;99133.00;;;;4934268;29;20098;-62
2023/02/02 01:27:30;;;;;;;14.52;4.10;;;;;7.40;99136.00;;;;4917758;29;20051;-62
2023/02/02 01:29:57;;;;;;;20.73;4.30;;;;;7.40;99140.00;;;;4934794;29;20040;-63
2023/02/02 01:32:24;;;;;;;13.50;4.10;;;;;7.40;99137.00;;;;4917697;29;20059;-62
2023/02/02 01:34:51;;;;;;;21.48;4.72;;;;;7.40;99136.00;;;;4917503;29;20055;-62
2023/02/02 01:37:17;;;;;;;13.63;3.95;;;;;7.40;99125.00;;;;4917617;29;20056;-63
2023/02/02 01:39:44;;;;;;;17.55;3.95;;;;;7.50;99143.00;;;;4934610;29;20118;-62
2023/02/02 01:42:14;;;;;;;18.80;3.80;;;;;7.50;99130.00;;;;4917417;29;20051;-63
2023/02/02 01:44:59;;;;;;;16.98;4.60;;;;;7.40;99136.00;;;;4934097;29;20110;-63
2023/02/02 01:47:36;;;;;;;16.23;4.50;;;;;7.40;99129.00;;;;4917376;29;20051;-63
2023/02/02 01:50:04;;;;;;;18.30;4.78;;;;;7.50;99131.00;;;;4934518;29;20047;-63
2023/02/02 01:52:32;;;;;;;22.70;4.80;;;;;7.50;99147.00;;;;4934439;29;20495;-63
2023/02/02 01:55:07;;;;;;;14.95;3.67;;;;;7.50;99136.00;;;;4933861;29;20127;-63
2023/02/02 01:57:42;;;;;;;;;;;;;7.50;99137.00;;;;4934800;29;20047;-63
2023/02/02 02:00:13;;;;;;;13.85;3.55;;;;;7.50;99138.00;;;;4934231;29;19923;-65
2023/02/02 02:02:45;;;;;;;19.58;4.60;;;;;7.50;99132.00;;;;4934145;29;20056;-63
2023/02/02 02:05:17;;;;;;;12.65;3.75;;;;;7.60;99136.00;;;;4916806;29;20134;-63
2023/02/02 02:07:46;;;;;;;19.90;4.63;;;;;7.50;99134.00;;;;4917186;29;20051;-63
2023/02/02 02:10:16;;;;;;;13.55;3.95;;;;;7.50;99141.00;;;;4917005;29;20058;-62
2023/02/02 02:12:43;;;;;;;13.60;3.80;;;;;7.50;99142.00;;;;4934163;29;20050;-63
2023/02/02 02:18:07;;;;;;;18.58;4.20;;;;;7.50;99131.00;;;;4917010;29;20484;-63
2023/02/02 02:27:01;;;;;;;14.63;3.67;;;;;7.50;99145.00;;;;4937942;29;20417;-63
2023/02/02 02:29:46;;;;;;;12.15;3.50;;;;;7.50;99137.00;;;;4937821;29;20464;-61
2023/02/02 02:32:13;;;;;;;12.95;3.53;;;;;7.50;99135.00;;;;4920730;29;20493;-63
2023/02/02 02:35:08;;;;;;;16.92;4.68;;;;;7.50;99147.00;;;;4920361;29;20214;-63
2023/02/02 02:37:56;;;;;;;14.70;3.83;;;;;7.40;99137.00;;;;4920379;29;20051;-63
2023/02/02 02:40:36;;;;;;;12.35;3.92;;;;;7.50;99134.00;;;;4921127;29;20107;-63
2023/02/02 02:43:18;;;;;;;9.70;3.28;;;;;7.50;99137.00;;;;4937899;29;20044;-63
2023/02/02 02:45:47;;;;;;;19.35;4.43;;;;;7.50;99143.00;;;;4927584;29;20051;-64
2023/02/02 02:48:15;;;;;;;20.92;4.60;;;;;7.60;99138.00;;;;4945613;29;20509;-63
2023/02/02 02:50:41;;;;;;;18.23;4.38;;;;;7.50;99124.00;;;;4943767;29;20059;-63
2023/02/02 02:53:18;;;;;;;14.85;3.50;;;;;7.50;99134.00;;;;4920521;29;20052;-63
2023/02/02 02:55:56;;;;;;;15.38;3.85;;;;;7.50;99137.00;;;;4920015;29;20145;-63
2023/02/02 02:58:53;;;;;;;15.82;3.67;;;;;7.60;99139.00;;;;4920688;29;20071;-63
2023/02/02 03:01:32;;;;;;;15.30;4.30;;;;;7.50;99147.00;;;;4934469;29;20052;-63
2023/02/02 03:04:14;;;;;;;17.83;3.42;;;;;7.60;99137.00;;;;4937437;29;20509;-63
2023/02/02 03:06:46;;;;;;;11.38;3.50;;;;;7.60;99139.00;;;;4937471;29;20391;-62
2023/02/02 03:09:23;;;;;;;19.73;4.53;;;;;7.50;99148.00;;;;4920151;29;20051;-63
2023/02/02 03:11:50;;;;;;;14.07;3.75;;;;;7.50;99140.00;;;;4939065;29;20102;-63
2023/02/02 03:14:16;;;;;;;17.17;3.60;;;;;7.60;99153.00;;;;4921118;29;20048;-63
2023/02/02 03:16:43;;;;;;;19.50;4.18;;;;;7.60;99143.00;;;;4924001;29;20044;-63
2023/02/02 03:19:09;;;;;;;13.60;3.80;;;;;7.60;99140.00;;;;4941440;29;20047;-61
2023/02/02 03:21:36;;;;;;;11.55;3.70;;;;;7.60;99140.00;;;;4943152;29;20051;-63
2023/02/02 03:24:03;;;;;;;12.38;3.90;;;;;7.60;99132.00;;;;4941629;29;20052;-62
2023/02/02 03:26:29;;;;;;;16.00;4.18;;;;;7.60;99151.00;;;;4927379;29;20095;-62
2023/02/02 03:28:56;;;;;;;15.00;3.65;;;;;7.60;99142.00;;;;4941772;29;20453;-61
2023/02/02 03:31:25;;;;;;;20.52;4.65;;;;;7.60;99147.00;;;;4941128;29;20465;-62
2023/02/02 03:33:52;;;;;;;14.05;3.75;;;;;7.60;99147.00;;;;4937917;29;20047;-63
2023/02/02 03:36:19;;;;;;;20.88;4.05;;;;;7.60;99131.00;;;;4920218;29;20078;-63
2023/02/02 03:38:45;;;;;;;11.73;4.30;;;;;7.60;99130.00;;;;4937842;29;20382;-63
2023/02/02 03:41:12;;;;;;;15.60;4.15;;;;;7.60;99126.00;;;;4937260;29;20051;-64
2023/02/02 03:43:38;;;;;;;13.65;3.47;;;;;7.60;99138.00;;;;4920098;29;20047;-64
2023/02/02 03:46:06;;;;;;;17.30;3.97;;;;;7.60;99137.00;;;;4936671;29;20501;-62
2023/02/02 03:48:37;;;;;;;15.40;3.75;;;;;7.60;99144.00;;;;4919705;29;20119;-64
2023/02/02 03:51:08;;;;;;;11.02;3.30;;;;;7.60;99152.00;;;;4936351;29;20051;-63
2023/02/02 03:53:34;;;;;;;9.52;3.25;;;;;7.60;99138.00;;;;4936980;29;20122;-64
2023/02/02 03:56:01;;;;;;;8.63;3.10;;;;;7.70;99148.00;;;;4936418;29;20457;-61
2023/02/02 03:58:27;;;;;;;10.98;2.97;;;;;7.60;99138.00;;;;4937601;29;20052;-63
2023/02/02 04:01:01;;;;;;;10.27;2.72;;;;;7.60;99148.00;;;;4937125;29;20047;-61
2023/02/02 04:03:29;;;;;;;13.07;3.15;;;;;7.60;99149.00;;;;4937117;29;20099;-62
2023/02/02 04:05:55;;;;;;;7.43;2.90;;;;;7.70;99159.00;;;;4936451;29;20059;-61
2023/02/02 04:08:22;;;;;;;14.55;2.90;;;;;7.60;99150.00;;;;4920060;29;20047;-63
2023/02/02 04:10:49;;;;;;;14.80;3.20;;;;;7.60;99157.00;;;;4919651;29;20083;-62
2023/02/02 04:13:15;;;;;;;12.88;2.78;;;;;7.60;99166.00;;;;4920043;29;20399;-64
2023/02/02 04:15:42;;;;;;;14.40;3.10;;;;;7.60;99167.00;;;;4919021;29;20051;-61
2023/02/02 04:18:08;;;;;;;13.43;3.10;;;;;7.60;99157.00;;;;4937190;29;20062;-61
2023/02/02 04:20:35;;;;;;;15.10;4.03;;;;;7.60;99161.00;;;;4936677;29;20059;-62
2023/02/02 04:23:02;;;;;;;11.00;3.05;;;;;7.60;99158.00;;;;4919890;29;20048;-61
2023/02/02 04:25:28;;;;;;;11.45;2.88;;;;;7.60;99147.00;;;;4935856;29;20527;-62
2023/02/02 04:27:55;;;;;;;9.80;3.30;;;;;7.60;99161.00;;;;4936336;29;20044;-62
2023/02/02 04:30:21;;;;;;;11.02;3.13;;;;;7.60;99162.00;;;;4936229;29;20039;-62
2023/02/02 04:32:50;;;;;;;9.05;3.40;;;;;7.60;99175.00;;;;4936272;29;20466;-62
2023/02/02 04:35:16;;;;;;;8.30;2.70;;;;;7.60;99175.00;;;;4935824;29;20055;-62
2023/02/02 04:37:43;;;;;;;12.32;3.17;;;;;7.60;99169.00;;;;4920905;29;20056;-63
2023/02/02 04:40:10;;;;;;;13.65;3.35;;;;;7.70;99185.00;;;;4919321;29;20063;-62
2023/02/02 04:42:37;;;;;;;17.45;5.03;;;;;7.70;99184.00;;;;4918789;29;20052;-62
2023/02/02 04:45:04;;;;;;;12.02;3.08;;;;;7.70;99172.00;;;;4935230;29;20077;-63
2023/02/02 04:47:30;;;;;;;7.95;3.05;;;;;7.60;99174.00;;;;4936462;29;20059;-63
2023/02/02 04:49:57;;;;;;;13.38;3.95;;;;;7.60;99179.00;;;;4936010;29;20281;-61
2023/02/02 04:52:23;;;;;;;9.50;3.20;;;;;7.60;99187.00;;;;4935928;29;20043;-62
2023/02/02 04:54:50;;;;;;;13.40;3.33;;;;;7.60;99180.00;;;;4935480;29;20050;-64
2023/02/02 04:57:16;;;;;;;9.65;3.33;;;;;7.60;99190.00;;;;4918896;29;20111;-62
2023/02/02 04:59:43;;;;;;;10.43;3.38;;;;;7.60;99184.00;;;;4935894;29;20519;-62
2023/02/02 05:02:09;;;;;;;12.00;4.55;;;;;7.60;99191.00;;;;4919554;29;20062;-64
2023/02/02 05:04:36;;;;;;;10.23;3.10;;;;;7.60;99184.00;;;;4903000;29;20048;-62
2023/02/02 05:07:03;;;;;;;11.77;3.78;;;;;7.60;99190.00;;;;4903558;29;20079;-63
2023/02/02 05:09:29;;;;;;;9.10;3.10;;;;;7.60;99206.00;;;;4936120;29;20398;-63
2023/02/02 05:11:56;;;;;;;10.70;3.17;;;;;7.60;99198.00;;;;4935979;29;20410;-62
2023/02/02 05:14:23;;;;;;;12.18;3.20;;;;;7.60;99203.00;;;;4935670;29;20047;-62
2023/02/02 05:16:49;;;;;;;11.35;3.17;;;;;7.60;99208.00;;;;4936178;29;20075;-63
2023/02/02 05:19:16;;;;;;;10.80;3.50;;;;;7.70;99208.00;;;;4918797;29;20139;-63
2023/02/02 05:21:44;;;;;;;12.10;3.40;;;;;7.70;99210.00;;;;4918731;29;20058;-63
2023/02/02 05:24:11;;;;;;;9.07;3.33;;;;;7.70;99210.00;;;;4918490;29;20058;-64
2023/02/02 05:26:41;;;;;;;13.63;4.10;;;;;7.70;99222.00;;;;4935624;29;20554;-62
2023/02/02 05:29:08;;;;;;;11.82;3.72;;;;;7.70;99233.00;;;;4936019;29;20043;-64
2023/02/02 05:31:34;;;;;;;10.32;3.33;;;;;7.70;99225.00;;;;4935647;29;20039;-61
2023/02/02 05:34:01;;;;;;;10.85;3.28;;;;;7.70;99230.00;;;;4935752;29;20412;-62
2023/02/02 05:36:28;;;;;;;12.80;3.45;;;;;7.70;99228.00;;;;4935985;29;20056;-63
2023/02/02 05:38:54;;;;;;;11.15;3.38;;;;;7.70;99243.00;;;;4935938;29;20224;-62
2023/02/02 05:41:20;;;;;;;10.45;3.00;;;;;7.70;99232.00;;;;4935501;29;20039;-63
2023/02/02 05:43:47;;;;;;;14.45;3.38;;;;;7.60;99239.00;;;;4935463;29;20565;-64
2023/02/02 05:46:14;;;;;;;12.68;3.45;;;;;7.60;99245.00;;;;4917655;29;20052;-63
2023/02/02 05:48:40;;;;;;;10.43;3.22;;;;;7.70;99253.00;;;;4935790;29;20381;-63
2023/02/02 05:51:15;;;;;;;13.52;3.58;;;;;7.70;99249.00;;;;4935445;29;20416;-63
2023/02/02 05:53:43;;;;;;;14.38;4.22;;;;;7.60;99244.00;;;;4935354;29;20052;-63
2023/02/02 05:56:12;;;;;;;17.50;3.83;;;;;7.60;99243.00;;;;4917284;29;20059;-63
2023/02/02 05:58:38;;;;;;;15.45;3.67;;;;;7.60;99242.00;;;;4935035;29;20048;-64
2023/02/02 06:01:05;;;;;;;11.82;3.40;;;;;7.60;99232.00;;;;4918486;29;20043;-64
2023/02/02 06:03:31;;;;;;;17.40;4.53;;;;;7.60;99245.00;;;;4918112;29;20062;-62
2023/02/02 06:05:58;;;;;;;12.52;4.18;;;;;7.60;99242.00;;;;4934991;29;20058;-62
2023/02/02 06:08:25;;;;;;;17.52;4.57;;;;;7.60;99248.00;;;;4917746;29;20566;-63
2023/02/02 06:10:52;;;;;;;19.70;4.82;;;;;7.60;99245.00;;;;4935264;29;20051;-63
2023/02/02 06:13:20;;;;;;;13.02;4.25;;;;;7.60;99249.00;;;;4935191;29;20044;-64
2023/02/02 06:15:46;;;;;;;10.65;3.80;;;;;7.60;99249.00;;;;4934983;29;20072;-62
2023/02/02 06:18:13;;;;;;;10.00;4.15;;;;;7.50;99256.00;;;;4935289;29;20044;-63
2023/02/02 06:20:39;;;;;;;10.57;4.38;;;;;7.50;99253.00;;;;4917787;29;20048;-62
2023/02/02 06:23:06;;;;;;;15.43;4.05;;;;;7.60;99254.00;;;;4934953;29;20047;-63
2023/02/02 06:25:33;;;;;;;10.25;3.70;;;;;7.60;99267.00;;;;4934335;29;20452;-63
2023/02/02 06:28:00;;;;;;;14.70;4.00;;;;;7.50;99263.00;;;;4935277;29;20044;-64
2023/02/02 06:30:27;;;;;;;21.27;4.97;;;;;7.50;99255.00;;;;4934870;29;20397;-63
2023/02/02 06:32:54;;;;;;;17.00;5.20;;;;;7.50;99259.00;;;;4935258;29;20051;-63
2023/02/02 06:35:21;;;;;;;15.57;4.90;;;;;7.60;99254.00;;;;4918850;29;20051;-62
2023/02/02 06:37:48;;;;;;;16.33;4.38;;;;;7.60;99256.00;;;;4921950;29;20150;-62
2023/02/02 06:40:15;;;;;;;12.88;4.38;;;;;7.50;99260.00;;;;4940843;29;20055;-62
2023/02/02 06:42:41;;;;;;;20.50;5.20;;;;;7.50;99256.00;;;;4936603;29;20130;-63
2023/02/02 06:45:09;;;;;;;16.50;4.45;;;;;7.50;99253.00;;;;4917561;29;20607;-62
2023/02/02 06:47:35;;;;;;;15.93;4.53;;;;;7.50;99257.00;;;;4934867;29;20044;-63
2023/02/02 06:50:03;;;;;;;19.15;5.10;;;;;7.50;99261.00;;;;4917630;29;20047;-63
2023/02/02 06:52:29;;;;;;;20.15;4.30;;;;;7.50;99267.00;;;;4934416;29;20398;-63
2023/02/02 06:54:56;;;;;;;17.17;4.35;;;;;7.50;99276.00;;;;4933850;29;20099;-63
2023/02/02 06:57:22;;;;;;;15.00;4.00;;;;;7.50;99262.00;;;;4934472;29;20050;-63
2023/02/02 06:59:50;;;;;;;12.02;4.20;;;;;7.50;99261.00;;;;4917867;29;20043;-63
2023/02/02 07:02:16;;;;;;;18.77;4.75;;;;;7.50;99253.00;;;;4934419;29;20047;-62
2023/02/02 07:04:43;;;;;;;12.65;3.80;;;;;7.50;99242.00;;;;4933849;29;20051;-62
2023/02/02 07:07:09;;;;;;;17.73;4.28;;;;;7.40;99244.00;;;;4936179;29;20075;-62
2023/02/02 07:09:36;;;;;;;20.23;5.32;;;;;7.40;99245.00;;;;4921004;29;20087;-61
2023/02/02 07:12:02;;;;;;;16.88;4.30;;;;;7.40;99261.00;;;;4921114;29;20054;-63
2023/02/02 07:14:29;;;;;;;21.27;4.65;;;;;7.40;99256.00;;;;4937424;29;20055;-62
2023/02/02 07:16:55;;;;;;;17.15;5.18;;;;;7.40;99260.00;;;;4937808;29;20051;-61
2023/02/02 07:19:22;;;;;;;12.35;4.45;;;;;7.40;99260.00;;;;4937974;29;20052;-63
2023/02/02 07:21:48;;;;;;;15.85;4.38;;;;;7.50;99262.00;;;;4937905;29;20039;-62
2023/02/02 07:24:15;;;;;;;11.45;4.47;;;;;7.40;99253.00;;;;4920244;29;20505;-64
2023/02/02 07:26:42;;;;;;;16.38;3.88;;;;;7.40;99258.00;;;;4937863;29;20047;-66
2023/02/02 07:29:12;;;;;;;14.45;4.70;;;;;7.40;99258.00;;;;4937817;29;20043;-63
2023/02/02 07:31:41;;;;;;;11.40;3.70;;;;;7.40;99270.00;;;;4937665;29;20097;-64
2023/02/02 07:34:12;;;;;;;17.27;4.60;;;;;7.50;99270.00;;;;4919908;29;20055;-63
2023/02/02 07:36:38;;;;;;;15.10;4.22;;;;;7.50;99271.00;;;;4937227;29;20513;-62
2023/02/02 07:39:06;;;;;;;18.88;4.88;;;;;7.50;99276.00;;;;4920746;29;20383;-63
2023/02/02 07:41:38;;;;;;;12.13;4.63;;;;;7.50;99272.00;;;;4937460;29;20450;-63
2023/02/02 07:44:22;;;;;;;19.40;4.78;;;;;7.60;99289.00;;;;4919540;29;20043;-63
2023/02/02 07:46:48;;;;;;;11.63;3.83;;;;;7.50;99288.00;;;;4937516;29;20505;-62
2023/02/02 07:49:17;;;;;;;13.38;4.22;;;;;7.60;99305.00;;;;4920222;29;20051;-64
2023/02/02 07:51:44;;;;;;;14.05;4.15;;;;;7.60;99304.00;;;;4920004;29;20052;-62
2023/02/02 07:54:14;;;;;;;15.48;3.55;;;;;7.60;99306.00;;;;4936751;29;20039;-61
2023/02/02 07:56:43;;;;;;;14.57;3.97;;;;;7.60;99306.00;;;;4936890;29;20581;-63
2023/02/02 07:59:10;;;;;;;8.00;3.30;;;;;7.70;99321.00;;;;4937012;29;20494;-63
2023/02/02 08:01:40;;;;;;;11.45;3.90;;;;;7.70;99324.00;;;;4937124;29;20091;-62
2023/02/02 08:04:07;;;;;;;11.32;3.83;;;;;7.70;99331.00;;;;4919114;29;20190;-62
2023/02/02 08:06:37;;;;;;;17.58;4.72;;;;;7.70;99325.00;;;;4936883;29;20039;-63
2023/02/02 08:09:06;;;;;;;20.90;5.03;;;;;7.70;99329.00;;;;4936915;29;20044;-63
2023/02/02 08:11:35;;;;;;;13.32;4.18;;;;;7.70;99320.00;;;;4936616;29;20047;-63
2023/02/02 08:14:02;;;;;;;13.93;3.75;;;;;7.70;99320.00;;;;4936523;29;20513;-62
2023/02/02 08:16:38;;;;;;;10.95;4.20;;;;;7.80;99321.00;;;;4919751;29;20048;-60
2023/02/02 08:19:09;;;;;;;16.30;3.78;;;;;7.80;99310.00;;;;4935674;29;20054;-63
2023/02/02 08:21:51;;;;;;;20.08;4.55;;;;;7.80;99323.00;;;;4919331;29;20095;-64
2023/02/02 08:24:17;;;;;;;18.65;4.68;;;;;7.80;99325.00;;;;4935961;29;20047;-63
2023/02/02 08:26:44;;;;;;;14.85;4.03;;;;;7.80;99332.00;;;;4936725;29;20417;-63
2023/02/02 08:29:11;;;;;;;13.25;3.92;;;;;7.80;99330.00;;;;4936550;29;20051;-62
2023/02/02 08:31:42;;;;;;;18.17;4.57;;;;;7.80;99340.00;;;;4936216;29;20405;-63
2023/02/02 08:34:09;;;;;;;12.90;3.53;;;;;7.80;99338.00;;;;4935880;29;20051;-62
2023/02/02 08:36:36;;;;;;;14.00;3.95;;;;;7.80;99339.00;;;;4936349;29;20052;-62
2023/02/02 08:39:05;;;;;;;14.15;5.13;;;;;7.90;99344.00;;;;4936419;29;20118;-62
2023/02/02 08:41:32;;;;;;;12.57;3.85;;;;;7.90;99330.00;;;;4936363;29;20481;-63
2023/02/02 08:43:59;;;;;;;16.35;3.67;;;;;7.90;99321.00;;;;4936223;29;20418;-63
2023/02/02 08:46:25;;;;;;;7.53;3.13;;;;;7.80;99330.00;;;;4935949;29;20066;-63
2023/02/02 08:48:52;;;;;;;14.30;3.72;;;;;7.80;99322.00;;;;4935897;29;20560;-63
2023/02/02 08:51:19;;;;;;;12.30;4.25;;;;;7.80;99329.00;;;;4936250;29;20417;-64
2023/02/02 08:53:46;;;;;;;10.55;3.72;;;;;7.90;99330.00;;;;4935959;29;20052;-64
2023/02/02 08:56:18;;;;;;;10.98;3.17;;;;;7.90;99339.00;;;;4935579;29;20039;-64
2023/02/02 08:58:50;;;;;;;12.15;3.45;;;;;7.90;99332.00;;;;4936061;29;20050;-64
2023/02/02 09:01:26;;;;;;;10.77;3.13;;;;;7.90;99336.00;;;;4918885;29;20107;-62
2023/02/02 09:03:55;;;;;;;11.27;4.07;;;;;7.90;99349.00;;;;4935763;29;20040;-63
2023/02/02 09:06:28;;;;;;;10.57;3.40;;;;;7.90;99349.00;;;;4902584;29;20099;-63
2023/02/02 09:08:59;;;;;;;10.85;5.28;;;;;7.90;99351.00;;;;4918949;29;20048;-63
2023/02/02 09:11:29;;;;;;;11.50;4.03;;;;;7.90;99360.00;;;;4918599;29;20336;-63
2023/02/02 09:14:01;;;;;;;11.68;3.47;;;;;7.90;99356.00;;;;4918440;29;20056;-64
2023/02/02 09:16:29;;;;;;;13.77;3.42;;;;;8.00;99354.00;;;;4935538;29;20059;-62
2023/02/02 09:18:55;;;;;;;14.77;3.65;;;;;8.00;99342.00;;;;4935598;29;20460;-63
2023/02/02 09:21:23;;;;;;;10.05;3.60;;;;;8.10;99325.00;;;;4935358;29;20424;-62
2023/02/02 09:23:52;;;;;;;16.10;3.17;;;;;8.30;99331.00;;;;4935507;29;20048;-63
2023/02/02 09:26:27;;;;;;;15.05;3.70;;;;;8.40;99339.00;;;;4918476;29;20070;-63
2023/02/02 09:29:03;;;;;;;11.85;3.47;;;;;8.50;99340.00;;;;4935349;29;20501;-63
2023/02/02 09:31:35;;;;;;;10.75;3.72;;;;;8.70;99349.00;;;;4935418;29;20078;-64
2023/02/02 09:34:11;;;;;;;12.50;3.45;;;;;8.70;99354.00;;;;4917983;29;20497;-62
2023/02/02 09:37:00;;;;;;;6.90;2.95;;;;;8.70;99350.00;;;;4935468;29;20048;-63
2023/02/02 09:39:27;;;;;;;9.30;3.22;;;;;8.60;99362.00;;;;4935290;29;20565;-63
2023/02/02 09:42:22;;;;;;;7.45;3.05;;;;;8.60;99369.00;;;;4935552;29;20052;-63
2023/02/02 09:44:56;;;;;;;;;;;;;8.50;99364.00;;;;4935422;29;20051;-61
2023/02/02 09:47:54;;;;;;;12.23;3.38;;;;;8.50;99369.00;;;;4935312;29;19930;-63
2023/02/02 09:50:26;;;;;;;10.60;2.97;;;;;8.50;99374.00;;;;4926946;29;20070;-63
2023/02/02 09:53:07;;;;;;;14.18;6.20;;;;;8.50;99377.00;;;;4917906;29;20540;-63
2023/02/02 09:55:40;;;;;;;10.25;3.20;;;;;8.50;99373.00;;;;4917604;29;20052;-63
2023/02/02 09:58:09;;;;;;;12.55;4.30;;;;;8.40;99374.00;;;;4935033;29;20040;-63
2023/02/02 10:01:13;;;;;;;17.38;3.65;;;;;8.40;99389.00;;;;4934937;29;20508;-63
2023/02/02 10:03:57;;;;;;;14.15;3.22;;;;;8.40;99384.00;;;;4934755;29;20111;-63
2023/02/02 10:06:45;;;;;;;11.70;3.45;;;;;8.40;99395.00;;;;4934571;29;20099;-63
2023/02/02 10:09:46;;;;;;;10.88;3.30;;;;;8.40;99399.00;;;;4935023;29;20058;-63
2023/02/02 10:12:57;;;;;;;17.90;3.53;;;;;8.40;99411.00;;;;4934609;29;20044;-63
2023/02/02 10:15:55;;;;;;;9.90;2.97;;;;;8.40;99402.00;;;;4894166;29;20063;-62
2023/02/02 10:18:50;;;;;;;8.52;3.00;;;;;8.40;99408.00;;;;4894471;29;20593;-62
2023/02/02 10:21:23;;;;;;;11.30;3.55;;;;;8.30;99408.00;;;;4929892;29;20143;-63
2023/02/02 10:23:50;;;;;;;10.18;3.17;;;;;8.40;99402.00;;;;4934726;29;20039;-62
2023/02/02 10:26:19;;;;;;;13.70;3.13;;;;;8.40;99404.00;;;;4934368;29;20420;-62
2023/02/02 10:29:08;;;;;;;12.65;3.75;;;;;8.50;99408.00;;;;4917818;29;20059;-62
2023/02/02 10:31:43;;;;;;;10.50;3.08;;;;;8.40;99410.00;;;;4917970;29;20051;-63
2023/02/02 10:34:13;;;;;;;14.88;3.40;;;;;8.50;99415.00;;;;4937501;29;20044;-63
2023/02/02 10:37:02;;;;;;;12.27;3.70;;;;;8.50;99418.00;;;;4939679;29;20442;-63
2023/02/02 10:39:58;;;;;;;19.80;4.18;;;;;8.50;99416.00;;;;4934862;29;20075;-62
2023/02/02 10:42:32;;;;;;;10.63;2.92;;;;;8.50;99424.00;;;;4922228;29;20064;-63
2023/02/02 10:45:05;;;;;;;8.93;2.95;;;;;8.50;99429.00;;;;4938151;29;20497;-62
2023/02/02 10:47:33;;;;;;;10.77;3.67;;;;;8.50;99425.00;;;;4938284;29;20048;-63
2023/02/02 10:50:11;;;;;;;11.82;3.42;;;;;8.40;99429.00;;;;4938149;29;20048;-63
2023/02/02 10:52:48;;;;;;;11.70;3.22;;;;;8.50;99431.00;;;;4920966;29;20048;-62
2023/02/02 10:55:30;;;;;;;11.85;3.30;;;;;8.50;99415.00;;;;4920677;29;20048;-62
2023/02/02 10:58:12;;;;;;;12.35;3.45;;;;;8.50;99417.00;;;;4921308;29;20048;-63
2023/02/02 11:00:52;;;;;;;12.75;3.10;;;;;8.50;99423.00;;;;4938080;29;20052;-61
2023/02/02 11:03:25;;;;;;;10.07;3.10;;;;;8.50;99426.00;;;;4920846;29;20055;-64
2023/02/02 11:08:40;;;;;;;9.18;3.13;;;;;8.50;99420.00;;;;4938028;29;20054;-62
2023/02/02 11:11:20;;;;;;;14.25;3.70;;;;;8.60;99422.00;;;;4937866;29;20059;-62
2023/02/02 11:13:57;;;;;;;12.88;3.78;;;;;8.70;99421.00;;;;4937914;29;20130;-62
2023/02/02 11:16:32;;;;;;;9.82;3.35;;;;;8.80;99419.00;;;;4937554;29;20078;-62
2023/02/02 11:19:22;;;;;;;10.48;4.20;;;;;8.80;99424.00;;;;4937861;29;20511;-64
2023/02/02 11:21:52;;;;;;;9.57;3.38;;;;;8.90;99435.00;;;;4937929;29;20095;-62
2023/02/02 11:24:29;;;;;;;13.00;3.70;;;;;8.90;99432.00;;;;4936935;29;20047;-61
2023/02/02 11:27:00;;;;;;;10.90;3.45;;;;;9.00;99417.00;;;;4937548;29;20094;-61
2023/02/02 11:29:54;;;;;;;14.77;3.33;;;;;9.10;99420.00;;;;4937706;29;20477;-63
2023/02/02 11:32:31;;;;;;;12.20;3.92;;;;;9.30;99413.00;;;;4917524;29;20066;-63
2023/02/02 11:35:01;;;;;;;10.40;3.50;;;;;9.40;99417.00;;;;4936873;29;20043;-62
2023/02/02 11:37:28;;;;;;;11.05;4.05;;;;;9.40;99420.00;;;;4937361;29;20054;-62
2023/02/02 11:40:27;;;;;;;10.20;3.42;;;;;9.50;99426.00;;;;4920362;29;20497;-62
2023/02/02 11:42:56;;;;;;;10.50;3.67;;;;;9.50;99420.00;;;;4937385;29;20040;-62
2023/02/02 11:45:36;;;;;;;20.85;4.18;;;;;9.40;99422.00;;;;4936700;29;20051;-63
2023/02/02 11:48:19;;;;;;;13.13;4.28;;;;;9.50;99424.00;;;;4920145;29;20135;-63
2023/02/02 11:50:49;;;;;;;15.20;3.85;;;;;9.40;99428.00;;;;4937057;29;20036;-64
2023/02/02 11:53:25;;;;;;;14.93;3.50;;;;;9.30;99423.00;;;;4935564;29;20519;-63
2023/02/02 11:55:52;;;;;;;20.85;6.70;;;;;9.20;99415.00;;;;4919050;29;20064;-65
2023/02/02 11:58:26;;;;;;;29.23;6.28;;;;;9.20;99426.00;;;;4936416;29;20047;-63
2023/02/02 12:00:59;;;;;;;12.35;4.50;;;;;9.10;99427.00;;;;4920165;29;20046;-62
2023/02/02 12:03:35;;;;;;;15.73;4.03;;;;;8.90;99420.00;;;;4936999;29;20047;-63
2023/02/02 12:06:23;;;;;;;10.40;3.47;;;;;8.90;99425.00;;;;4936513;29;20059;-62
2023/02/02 12:08:54;;;;;;;11.20;3.70;;;;;8.80;99430.00;;;;4937069;29;20453;-61
2023/02/02 12:11:45;;;;;;;11.23;4.18;;;;;8.80;99425.00;;;;4936663;29;20043;-62
2023/02/02 12:14:33;;;;;;;10.77;3.08;;;;;8.80;99432.00;;;;4936182;29;20066;-62
2023/02/02 12:17:12;;;;;;;8.43;2.78;;;;;8.90;99428.00;;;;4937263;29;20051;-63
2023/02/02 12:20:18;;;;;;;9.50;2.85;;;;;8.90;99416.00;;;;4936536;29;20075;-63
2023/02/02 12:22:57;;;;;;;10.00;3.50;;;;;8.90;99428.00;;;;4936551;29;20416;-63
2023/02/02 12:25:32;;;;;;;9.10;3.70;;;;;8.90;99433.00;;;;4935995;29;20059;-63
2023/02/02 12:28:43;;;;;;;12.10;3.08;;;;;8.90;99417.00;;;;4936695;29;20047;-63
2023/02/02 12:31:19;;;;;;;10.30;3.42;;;;;8.80;99417.00;;;;4926505;29;20070;-63
2023/02/02 12:34:00;;;;;;;8.88;2.33;;;;;8.80;99410.00;;;;4936242;29;20052;-63
2023/02/02 12:36:56;;;;;;;7.13;2.40;;;;;8.80;99414.00;;;;4935769;29;20354;-63
2023/02/02 12:39:46;;;;;;;10.43;2.35;;;;;8.90;99408.00;;;;4936280;29;20055;-63
2023/02/02 12:42:41;;;;;;;8.18;2.30;;;;;8.90;99403.00;;;;4917292;29;20056;-63
2023/02/02 12:45:33;;;;;;;6.53;2.00;;;;;8.90;99410.00;;;;4935647;29;20417;-63
2023/02/02 12:48:20;;;;;;;9.88;2.78;;;;;8.90;99410.00;;;;4936036;29;20126;-63
2023/02/02 12:50:53;;;;;;;6.88;2.42;;;;;9.00;99407.00;;;;4935994;29;20051;-63
2023/02/02 12:53:34;;;;;;;11.13;2.47;;;;;9.00;99386.00;;;;4935767;29;20051;-62